Time;durP1;ratioP1;P1;durP2;ratioP2;P2;SDS_P1;SDS_P2;PMS_P1;PMS_P2;Temp;Humidity;BMP_temperature;BMP_pressure;BME280_temperature;BME280_humidity;BME280_pressure;Samples;Min_cycle;Max_cycle;Signal;HPM_P1;HPM_P2
2021/12/31 00:01:30;;;;;;;;;;;;;;;-144.99;100.00;52635.63;5031802;28;19921;-63
2021/12/31 00:03:56;;;;;;;;;;;;;;;-144.99;100.00;52607.09;5028511;28;19921;-65
2021/12/31 00:06:23;;;;;;;;;;;;;;;-144.99;100.00;52586.69;5029021;28;19925;-64
2021/12/31 00:08:49;;;;;;;;;;;;;;;-144.99;100.00;52578.53;5028859;28;19925;-64
2021/12/31 00:11:15;;;;;;;;;;;;;;;-144.99;100.00;52639.69;5029068;28;19921;-65
2021/12/31 00:13:42;;;;;;;;;;;;;;;-144.99;100.00;52598.94;5029113;28;19928;-63
2021/12/31 00:16:08;;;;;;;;;;;;;;;-144.99;100.00;52566.31;5026104;28;19962;-64
2021/12/31 00:18:36;;;;;;;;;;;;;;;-144.99;100.00;52570.38;5036953;28;20096;-64
2021/12/31 00:21:03;;;;;;;;;;;;;;;-144.99;100.00;52598.94;5035593;28;19921;-63
2021/12/31 00:23:29;;;;;;;;;;;;;;;-144.99;100.00;52607.09;5040703;28;19920;-64
2021/12/31 00:25:56;;;;;;;;;;;;;;;-144.99;100.00;52570.38;5033218;28;19967;-63
2021/12/31 00:28:22;;;;;;;;;;;;;;;-144.99;100.00;52584.66;5039537;28;20512;-63
2021/12/31 00:30:53;;;;;;;;;;;;;;;-144.99;100.00;52598.94;5039904;28;19924;-64
2021/12/31 00:33:19;;;;;;;;;;;;;;;-144.99;100.00;52609.13;5045240;28;20152;-64
2021/12/31 00:35:47;;;;;;;;;;;;;;;-144.99;100.00;52611.16;5036753;28;20015;-64
2021/12/31 00:38:14;;;;;;;;;;;;;;;-144.99;100.00;52582.63;5031785;28;20024;-64
2021/12/31 00:40:40;;;;;;;;;;;;;;;-144.99;100.00;52570.38;5036441;28;20374;-63
2021/12/31 00:43:10;;;;;;;;;;;;;;;-144.99;100.00;52592.81;5037074;28;19921;-66
2021/12/31 00:45:39;;;;;;;;;;;;;;;-144.99;100.00;52617.28;5037018;28;20401;-64
2021/12/31 00:48:05;;;;;;;;;;;;;;;-144.99;100.00;52590.78;5040458;28;20020;-65
2021/12/31 00:50:32;;;;;;;;;;;;;;;-144.99;100.00;52566.31;5038800;28;19928;-64
2021/12/31 00:53:00;;;;;;;;;;;;;;;-144.99;100.00;52574.47;5037347;28;19920;-64
2021/12/31 00:55:26;;;;;;;;;;;;;;;-144.99;100.00;52621.34;5036112;28;20301;-64
2021/12/31 00:57:52;;;;;;;;;;;;;;;-144.99;100.00;52615.25;5042952;28;20046;-62
2021/12/31 01:00:19;;;;;;;;;;;;;;;-144.99;100.00;52570.38;5027525;28;19927;-63
2021/12/31 01:02:46;;;;;;;;;;;;;;;-144.99;100.00;52582.63;5041361;28;19947;-63
2021/12/31 01:05:16;;;;;;;;;;;;;;;-144.99;100.00;52586.69;5038846;28;19946;-62
2021/12/31 01:07:43;;;;;;;;;;;;;;;-144.99;100.00;52594.84;5040420;28;20031;-63
2021/12/31 01:10:13;;;;;;;;;;;;;;;-144.99;100.00;52611.16;5037112;28;20294;-62
2021/12/31 01:12:39;;;;;;;;;;;;;;;-144.99;100.00;52607.09;5039201;28;19925;-63
2021/12/31 01:15:10;;;;;;;;;;;;;;;-144.99;100.00;52564.28;5040787;28;19925;-61
2021/12/31 01:17:47;;;;;;;;;;;;;;;-144.99;100.00;52586.69;5040340;28;20017;-61
2021/12/31 01:20:14;;;;;;;;;;;;;;;-144.99;100.00;52586.69;5029319;28;19925;-61
2021/12/31 01:22:41;;;;;;;;;;;;;;;-144.99;100.00;52611.16;5039383;28;19920;-62
2021/12/31 01:25:08;;;;;;;;;;;;;;;-144.99;100.00;52594.84;5038258;28;19924;-62
2021/12/31 01:27:36;;;;;;;;;;;;;;;-144.99;100.00;52598.94;5036971;28;19925;-62
2021/12/31 01:30:04;;;;;;;;;;;;;;;-144.99;100.00;52570.38;5040231;28;19928;-62
2021/12/31 01:32:31;;;;;;;;;;;;;;;-144.99;100.00;52582.63;5038257;28;19921;-61
2021/12/31 01:34:58;;;;;;;;;;;;;;;-144.99;100.00;52619.31;5040513;28;19921;-62
2021/12/31 01:37:24;;;;;;;;;;;;;;;-144.99;100.00;52584.66;5039855;28;19940;-62
2021/12/31 01:39:50;;;;;;;;;;;;;;;-144.99;100.00;52603.00;5041059;28;19925;-62
2021/12/31 01:42:21;;;;;;;;;;;;;;;-144.99;100.00;52564.28;5042337;28;20317;-62
2021/12/31 01:44:56;;;;;;;;;;;;;;;-144.99;100.00;52566.31;5040199;28;19925;-64
2021/12/31 01:47:33;;;;;;;;;;;;;;;-144.99;100.00;52603.00;5042107;28;20297;-60
2021/12/31 01:50:04;;;;;;;;;;;;;;;-144.99;100.00;52603.00;5045111;28;19921;-63
2021/12/31 01:52:31;;;;;;;;;;;;;;;-144.99;100.00;52582.63;5027518;28;20035;-62
2021/12/31 01:54:57;;;;;;;;;;;;;;;-144.99;100.00;52623.38;5043366;28;20489;-62
2021/12/31 01:57:24;;;;;;;;;;;;;;;-144.99;100.00;52594.84;5043312;28;19920;-62
2021/12/31 01:59:52;;;;;;;;;;;;;;;-144.99;100.00;52598.94;5049715;22;19921;-61
2021/12/31 02:02:19;;;;;;;;;;;;;;;-144.99;100.00;52558.16;5039433;28;19931;-61
2021/12/31 02:04:46;;;;;;;;;;;;;;;-144.99;100.00;52588.75;5038844;28;19965;-62
2021/12/31 02:07:12;;;;;;;;;;;;;;;-144.99;100.00;52611.16;5043154;28;20343;-61
2021/12/31 02:09:46;;;;;;;;;;;;;;;-144.99;100.00;52633.59;5034749;28;19968;-61
2021/12/31 02:12:12;;;;;;;;;;;;;;;-144.99;100.00;52586.69;5024446;28;20456;-59
2021/12/31 02:14:39;;;;;;;;;;;;;;;-144.99;100.00;52603.00;5045842;28;19921;-60
2021/12/31 02:17:09;;;;;;;;;;;;;;;-144.99;100.00;52603.00;5041036;28;19921;-62
2021/12/31 02:19:36;;;;;;;;;;;;;;;-144.99;100.00;52603.00;5030386;28;20000;-64
2021/12/31 02:22:04;;;;;;;;;;;;;;;-144.99;100.00;52594.84;5030868;28;19928;-65
2021/12/31 02:24:31;;;;;;;;;;;;;;;-144.99;100.00;52615.25;5030663;28;20008;-65
2021/12/31 02:26:58;;;;;;;;;;;;;;;-144.99;100.00;52609.13;5038683;28;19971;-63
2021/12/31 02:29:25;;;;;;;;;;;;;;;-144.99;100.00;52592.81;5030686;28;19928;-66
2021/12/31 02:31:52;;;;;;;;;;;;;;;-144.99;100.00;52605.03;5030221;28;19940;-63
2021/12/31 02:34:18;;;;;;;;;;;;;;;-144.99;100.00;52615.25;5030369;28;20326;-63
2021/12/31 02:36:45;;;;;;;;;;;;;;;-144.99;100.00;52619.31;5042609;28;20323;-62
2021/12/31 02:39:12;;;;;;;;;;;;;;;-144.99;100.00;52603.00;5030342;28;20336;-63
2021/12/31 02:41:39;;;;;;;;;;;;;;;-144.99;100.00;52590.78;5030576;28;19971;-63
2021/12/31 02:44:05;;;;;;;;;;;;;;;-144.99;100.00;52603.00;5031033;28;20437;-64
2021/12/31 02:46:31;;;;;;;;;;;;;;;-144.99;100.00;52572.44;5030420;28;20318;-63
2021/12/31 02:48:58;;;;;;;;;;;;;;;-144.99;100.00;52600.97;5029968;28;19929;-64
2021/12/31 02:51:24;;;;;;;;;;;;;;;-144.99;100.00;52594.84;5030789;28;19928;-63
2021/12/31 02:53:52;;;;;;;;;;;;;;;-144.99;100.00;52615.25;5029949;28;19925;-64
2021/12/31 02:56:20;;;;;;;;;;;;;;;-144.99;100.00;52607.09;5035784;28;19927;-63
2021/12/31 02:58:47;;;;;;;;;;;;;;;-144.99;100.00;52590.78;5036293;28;19925;-62
2021/12/31 03:01:14;;;;;;;;;;;;;;;-144.99;100.00;52633.59;5030645;28;19995;-63
2021/12/31 03:03:41;;;;;;;;;;;;;;;-144.99;100.00;52584.66;5030006;28;19968;-64
2021/12/31 03:06:08;;;;;;;;;;;;;;;-144.99;100.00;52621.34;5030261;28;19924;-66
2021/12/31 03:08:36;;;;;;;;;;;;;;;-144.99;100.00;52578.53;5029831;28;19921;-63
2021/12/31 03:11:04;;;;;;;;;;;;;;;-144.99;100.00;52603.00;5030176;28;20374;-63
2021/12/31 03:13:32;;;;;;;;;;;;;;;-144.99;100.00;52615.25;5037986;28;19929;-64
2021/12/31 03:16:00;;;;;;;;;;;;;;;-144.99;100.00;52578.53;5039520;28;19929;-64
2021/12/31 03:18:27;;;;;;;;;;;;;;;-144.99;100.00;52586.69;5032352;28;20008;-63
2021/12/31 03:21:01;;;;;;;;;;;;;;;-144.99;100.00;52586.69;5029697;28;19921;-63
2021/12/31 03:23:29;;;;;;;;;;;;;;;-144.99;100.00;52584.66;5029685;28;19992;-64
2021/12/31 03:25:55;;;;;;;;;;;;;;;-144.99;100.00;52607.09;5044436;28;19940;-63
2021/12/31 03:28:22;;;;;;;;;;;;;;;-144.99;100.00;52605.03;5030089;28;20016;-63
2021/12/31 03:30:50;;;;;;;;;;;;;;;-144.99;100.00;52615.25;5029500;28;19921;-63
2021/12/31 03:33:16;;;;;;;;;;;;;;;-144.99;100.00;52611.16;5029672;28;19925;-67
2021/12/31 03:35:42;;;;;;;;;;;;;;;-144.99;100.00;52605.03;5036807;28;19921;-61
2021/12/31 03:38:09;;;;;;;;;;;;;;;-144.99;100.00;52586.69;5030922;28;19925;-63
2021/12/31 03:40:36;;;;;;;;;;;;;;;-144.99;100.00;52607.09;5028802;28;19935;-62
2021/12/31 03:43:03;;;;;;;;;;;;;;;-144.99;100.00;52627.47;5030104;28;19921;-63
2021/12/31 03:45:29;;;;;;;;;;;;;;;-144.99;100.00;52590.78;5030032;28;20010;-62
2021/12/31 03:47:57;;;;;;;;;;;;;;;-144.99;100.00;52656.00;5029953;28;19921;-62
2021/12/31 03:50:23;;;;;;;;;;;;;;;-144.99;100.00;52605.03;5029607;28;19943;-61
2021/12/31 03:52:50;;;;;;;;;;;;;;;-144.99;100.00;52619.31;5029382;28;19921;-61
2021/12/31 03:55:16;;;;;;;;;;;;;;;-144.99;100.00;52660.09;5028805;28;19920;-62
2021/12/31 03:57:42;;;;;;;;;;;;;;;-144.99;100.00;52627.47;5037756;28;19921;-62
2021/12/31 04:00:10;;;;;;;;;;;;;;;-144.99;100.00;52609.13;5029435;28;19989;-62
2021/12/31 04:02:37;;;;;;;;;;;;;;;-144.99;100.00;52598.94;5029131;28;19920;-61
2021/12/31 04:05:05;;;;;;;;;;;;;;;-144.99;100.00;52607.09;5030089;28;19921;-61
2021/12/31 04:07:31;;;;;;;;;;;;;;;-144.99;100.00;52615.25;5029915;28;19925;-61
2021/12/31 04:09:58;;;;;;;;;;;;;;;-144.99;100.00;52594.84;5029207;28;19931;-60
2021/12/31 04:12:24;;;;;;;;;;;;;;;-144.99;100.00;52639.69;5035033;28;19928;-59
2021/12/31 04:14:50;;;;;;;;;;;;;;;-144.99;100.00;52574.47;5040468;28;20031;-59
2021/12/31 04:17:17;;;;;;;;;;;;;;;-144.99;100.00;52596.88;5032500;28;19921;-60
2021/12/31 04:19:43;;;;;;;;;;;;;;;-144.99;100.00;52603.00;5028799;28;19928;-59
2021/12/31 04:22:13;;;;;;;;;;;;;;;-144.99;100.00;52582.63;5028682;28;19928;-60
2021/12/31 04:24:53;;;;;;;;;;;;;;;-144.99;100.00;52594.84;5032497;28;19921;-59
2021/12/31 04:27:20;;;;;;;;;;;;;;;-144.99;100.00;52607.09;5032968;28;19921;-59
2021/12/31 04:29:51;;;;;;;;;;;;;;;-144.99;100.00;52603.00;5029094;28;20298;-60
2021/12/31 04:32:17;;;;;;;;;;;;;;;-144.99;100.00;52615.25;5028990;28;19921;-60
2021/12/31 04:34:43;;;;;;;;;;;;;;;-144.99;100.00;52631.53;5028542;28;19920;-59
2021/12/31 04:37:11;;;;;;;;;;;;;;;-144.99;100.00;52613.19;5037573;28;19921;-59
2021/12/31 04:39:38;;;;;;;;;;;;;;;-144.99;100.00;52611.16;5028845;28;19921;-59
2021/12/31 04:42:04;;;;;;;;;;;;;;;-144.99;100.00;52623.38;5029134;28;20297;-60
2021/12/31 04:44:31;;;;;;;;;;;;;;;-144.99;100.00;52611.16;5028826;28;19932;-59
2021/12/31 04:46:57;;;;;;;;;;;;;;;-144.99;100.00;52603.00;5031698;28;19927;-60
2021/12/31 04:49:24;;;;;;;;;;;;;;;-144.99;100.00;52651.94;5032114;28;19947;-60
2021/12/31 04:51:50;;;;;;;;;;;;;;;-144.99;100.00;52643.78;5033018;28;19928;-60
2021/12/31 04:54:18;;;;;;;;;;;;;;;-144.99;100.00;52692.69;5031892;28;19921;-61
2021/12/31 04:56:44;;;;;;;;;;;;;;;-144.99;100.00;52576.50;5032692;28;19967;-61
2021/12/31 04:59:10;;;;;;;;;;;;;;;-144.99;100.00;52631.53;5032467;28;19921;-60
2021/12/31 05:01:37;;;;;;;;;;;;;;;-144.99;100.00;52621.34;5033055;28;19921;-60
2021/12/31 05:04:04;;;;;;;;;;;;;;;-144.99;100.00;52619.31;5031877;28;19925;-61
2021/12/31 05:06:30;;;;;;;;;;;;;;;-144.99;100.00;52584.66;5032911;28;19928;-58
2021/12/31 05:08:57;;;;;;;;;;;;;;;-144.99;100.00;52582.63;5031956;28;20299;-59
2021/12/31 05:11:25;;;;;;;;;;;;;;;-144.99;100.00;52594.84;5032401;28;19943;-59
2021/12/31 05:13:51;;;;;;;;;;;;;;;-144.99;100.00;52623.38;5041350;28;19921;-61
2021/12/31 05:16:17;;;;;;;;;;;;;;;-144.99;100.00;52664.16;5041450;28;20390;-61
2021/12/31 05:18:44;;;;;;;;;;;;;;;-144.99;100.00;52586.69;5033112;28;19925;-61
2021/12/31 05:21:10;;;;;;;;;;;;;;;-144.99;100.00;52574.47;5032095;28;19921;-62
2021/12/31 05:23:36;;;;;;;;;;;;;;;-144.99;100.00;52594.84;5032815;28;19921;-61
2021/12/31 05:26:03;;;;;;;;;;;;;;;-144.99;100.00;52649.88;5039786;28;19925;-60
2021/12/31 05:28:32;;;;;;;;;;;;;;;-144.99;100.00;52627.47;5032409;28;19947;-60
2021/12/31 05:30:59;;;;;;;;;;;;;;;-144.99;100.00;52611.16;5031700;28;20136;-60
2021/12/31 05:33:25;;;;;;;;;;;;;;;-144.99;100.00;52598.94;5031833;28;19928;-61
2021/12/31 05:35:51;;;;;;;;;;;;;;;-144.99;100.00;52623.38;5039995;28;19929;-61
2021/12/31 05:38:17;;;;;;;;;;;;;;;-144.99;100.00;52656.00;5019368;28;19936;-60
2021/12/31 05:40:44;;;;;;;;;;;;;;;-144.99;100.00;52558.16;5031664;28;19921;-60
2021/12/31 05:43:10;;;;;;;;;;;;;;;-144.99;100.00;52621.34;5031817;28;19928;-60
2021/12/31 05:45:39;;;;;;;;;;;;;;;-144.99;100.00;52651.94;5031051;28;20027;-60
2021/12/31 05:48:06;;;;;;;;;;;;;;;-144.99;100.00;52566.31;5032407;28;19935;-60
2021/12/31 05:50:32;;;;;;;;;;;;;;;-144.99;100.00;52566.31;5032245;28;19925;-61
2021/12/31 05:53:00;;;;;;;;;;;;;;;-144.99;100.00;52600.97;5032259;28;19920;-60
2021/12/31 05:55:27;;;;;;;;;;;;;;;-144.99;100.00;52639.69;5029520;28;19927;-61
2021/12/31 05:57:55;;;;;;;;;;;;;;;-144.99;100.00;52594.84;5041721;28;19925;-62
2021/12/31 06:00:21;;;;;;;;;;;;;;;-144.99;100.00;52615.25;5035354;28;20354;-62
2021/12/31 06:02:49;;;;;;;;;;;;;;;-144.99;100.00;52631.53;5031552;28;20404;-61
2021/12/31 06:05:15;;;;;;;;;;;;;;;-144.99;100.00;52611.16;5030937;28;20289;-61
2021/12/31 06:07:42;;;;;;;;;;;;;;;-144.99;100.00;52603.00;5032008;28;20354;-62
2021/12/31 06:10:08;;;;;;;;;;;;;;;-144.99;100.00;52603.00;5031242;28;20346;-61
2021/12/31 06:12:35;;;;;;;;;;;;;;;-144.99;100.00;52603.00;5038430;28;19927;-62
2021/12/31 06:15:04;;;;;;;;;;;;;;;-144.99;100.00;52598.94;5041763;28;20383;-61
2021/12/31 06:17:31;;;;;;;;;;;;;;;-144.99;100.00;52594.84;5030433;28;19921;-61
2021/12/31 06:19:59;;;;;;;;;;;;;;;-144.99;100.00;52623.38;5031084;28;19921;-59
2021/12/31 06:22:26;;;;;;;;;;;;;;;-144.99;100.00;52607.09;5031092;28;19944;-59
2021/12/31 06:24:52;;;;;;;;;;;;;;;-144.99;100.00;52643.78;5036704;28;19927;-60
2021/12/31 06:27:19;;;;;;;;;;;;;;;-144.99;100.00;52615.25;5031716;28;19921;-61
2021/12/31 06:29:45;;;;;;;;;;;;;;;-144.99;100.00;52603.00;5030919;28;20341;-61
2021/12/31 06:32:12;;;;;;;;;;;;;;;-144.99;100.00;52576.50;5030942;28;19925;-59
2021/12/31 06:34:38;;;;;;;;;;;;;;;-144.99;100.00;52605.03;5030207;28;19929;-60
2021/12/31 06:37:06;;;;;;;;;;;;;;;-144.99;100.00;52615.25;5039760;28;19928;-60
2021/12/31 06:39:35;;;;;;;;;;;;;;;-144.99;100.00;52607.09;5030095;28;19928;-59
2021/12/31 06:42:07;;;;;;;;;;;;;;;-144.99;100.00;52656.00;5021258;28;19929;-59
2021/12/31 06:44:34;;;;;;;;;;;;;;;-144.99;100.00;52631.53;5030632;28;20112;-60
2021/12/31 06:47:00;;;;;;;;;;;;;;;-144.99;100.00;52639.69;5030432;28;19921;-60
2021/12/31 06:49:26;;;;;;;;;;;;;;;-144.99;100.00;52619.31;5030045;28;20285;-58
2021/12/31 06:51:53;;;;;;;;;;;;;;;-144.99;100.00;52631.53;5030483;28;20377;-59
2021/12/31 06:54:20;;;;;;;;;;;;;;;-144.99;100.00;52631.53;5029563;28;19921;-59
2021/12/31 06:56:47;;;;;;;;;;;;;;;-144.99;100.00;52653.97;5038308;28;19924;-59
2021/12/31 06:59:13;;;;;;;;;;;;;;;-144.99;100.00;52607.09;5036780;28;19967;-62
2021/12/31 07:01:39;;;;;;;;;;;;;;;-144.99;100.00;52617.28;5030096;28;20053;-61
2021/12/31 07:04:06;;;;;;;;;;;;;;;-144.99;100.00;52603.00;5030067;28;20012;-61
2021/12/31 07:06:32;;;;;;;;;;;;;;;-144.99;100.00;52629.50;5030417;28;19921;-60
2021/12/31 07:08:58;;;;;;;;;;;;;;;-144.99;100.00;52617.28;5028278;28;19933;-61
2021/12/31 07:11:26;;;;;;;;;;;;;;;-144.99;100.00;52613.19;5030482;28;20247;-61
2021/12/31 07:13:52;;;;;;;;;;;;;;;-144.99;100.00;52603.00;5040175;28;19996;-62
2021/12/31 07:16:19;;;;;;;;;;;;;;;-144.99;100.00;52623.38;5039608;28;20085;-58
2021/12/31 07:18:45;;;;;;;;;;;;;;;-144.99;100.00;52596.88;5030753;28;19921;-59
2021/12/31 07:21:12;;;;;;;;;;;;;;;-144.99;100.00;52619.31;5029691;28;19925;-58
2021/12/31 07:23:38;;;;;;;;;;;;;;;-144.99;100.00;52637.66;5028797;28;19925;-58
2021/12/31 07:26:04;;;;;;;;;;;;;;;-144.99;100.00;52598.94;5036645;28;19924;-58
2021/12/31 07:28:32;;;;;;;;;;;;;;;-144.99;100.00;52603.00;5031268;28;20020;-58
2021/12/31 07:30:59;;;;;;;;;;;;;;;-144.99;100.00;52582.63;5029972;28;19927;-58
2021/12/31 07:33:26;;;;;;;;;;;;;;;-144.99;100.00;52611.16;5029376;28;20011;-58
2021/12/31 07:35:53;;;;;;;;;;;;;;;-144.99;100.00;52603.00;5036062;28;19927;-58
2021/12/31 07:38:21;;;;;;;;;;;;;;;-144.99;100.00;52605.03;5029399;28;19921;-58
2021/12/31 07:40:47;;;;;;;;;;;;;;;-144.99;100.00;52625.44;5030053;28;19924;-58
2021/12/31 07:43:14;;;;;;;;;;;;;;;-144.99;100.00;52605.03;5029939;28;19921;-59
2021/12/31 07:45:42;;;;;;;;;;;;;;;-144.99;100.00;52635.63;5030059;28;19928;-59
2021/12/31 07:48:09;;;;;;;;;;;;;;;-144.99;100.00;52668.22;5030134;28;19920;-60
2021/12/31 07:50:36;;;;;;;;;;;;;;;-144.99;100.00;52603.00;5028926;28;19925;-61
2021/12/31 07:53:03;;;;;;;;;;;;;;;-144.99;100.00;52615.25;5029860;28;19960;-60
2021/12/31 07:55:29;;;;;;;;;;;;;;;-144.99;100.00;52613.19;5029162;28;20433;-59
2021/12/31 07:57:56;;;;;;;;;;;;;;;-144.99;100.00;52656.00;5030879;28;19921;-59
2021/12/31 08:00:22;;;;;;;;;;;;;;;-144.99;100.00;52580.59;5044801;22;19929;-71
2021/12/31 08:02:50;;;;;;;;;;;;;;;-144.99;100.00;52611.16;5022703;28;19921;-68
2021/12/31 08:05:16;;;;;;;;;;;;;;;-144.99;100.00;52578.53;5030875;28;19921;-68
2021/12/31 08:07:42;;;;;;;;;;;;;;;-144.99;100.00;52605.03;5030793;28;19928;-66
2021/12/31 08:10:09;;;;;;;;;;;;;;;-144.99;100.00;52578.53;5030558;28;19925;-68
2021/12/31 08:12:36;;;;;;;;;;;;;;;-144.99;100.00;52629.50;5037812;28;19928;-67
2021/12/31 08:15:02;;;;;;;;;;;;;;;-144.99;100.00;52598.94;5040604;28;19928;-67
2021/12/31 08:17:29;;;;;;;;;;;;;;;-144.99;100.00;52605.03;5030097;28;19921;-66
2021/12/31 08:19:57;;;;;;;;;;;;;;;-144.99;100.00;52631.53;5031018;28;19921;-68
2021/12/31 08:22:23;;;;;;;;;;;;;;;-144.99;100.00;52582.63;5038669;28;19925;-65
2021/12/31 08:24:49;;;;;;;;;;;;;;;-144.99;100.00;52603.00;5047374;28;20080;-66
2021/12/31 08:27:16;;;;;;;;;;;;;;;-144.99;100.00;52603.00;5052750;28;20292;-68
2021/12/31 08:29:42;;;;;;;;;;;;;;;-144.99;100.00;52613.19;5044730;28;20479;-67
2021/12/31 08:32:08;;;;;;;;;;;;;;;-144.99;100.00;52607.09;5044939;28;19921;-65
2021/12/31 08:34:35;;;;;;;;;;;;;;;-144.99;100.00;52562.25;5043709;28;19921;-66
2021/12/31 08:37:03;;;;;;;;;;;;;;;-144.99;100.00;52619.31;5053035;28;19928;-67
2021/12/31 08:39:29;;;;;;;;;;;;;;;-144.99;100.00;52582.63;5041780;28;19921;-66
2021/12/31 08:41:55;;;;;;;;;;;;;;;-144.99;100.00;52611.16;5043615;28;19928;-67
2021/12/31 08:44:22;;;;;;;;;;;;;;;-144.99;100.00;52611.16;5042817;28;19921;-66
2021/12/31 08:46:48;;;;;;;;;;;;;;;-144.99;100.00;52598.94;5042144;28;19928;-66
2021/12/31 08:49:15;;;;;;;;;;;;;;;-144.99;100.00;52598.94;5042278;28;19921;-66
2021/12/31 08:51:41;;;;;;;;;;;;;;;-144.99;100.00;52611.16;5044972;28;19932;-66
2021/12/31 08:54:09;;;;;;;;;;;;;;;-144.99;100.00;52560.19;5045196;28;19936;-66
2021/12/31 08:56:35;;;;;;;;;;;;;;;-144.99;100.00;52647.84;5049214;28;19931;-66
2021/12/31 08:59:03;;;;;;;;;;;;;;;-144.99;100.00;52621.34;5050694;28;19944;-67
2021/12/31 09:01:29;;;;;;;;;;;;;;;-144.99;100.00;52631.53;5044627;28;20408;-62
2021/12/31 09:03:56;;;;;;;;;;;;;;;-144.99;100.00;52582.63;5044124;28;19948;-69
2021/12/31 09:06:22;;;;;;;;;;;;;;;-144.99;100.00;52603.00;5045934;28;20377;-68
2021/12/31 09:08:49;;;;;;;;;;;;;;;-144.99;100.00;52643.78;5043816;28;20484;-68
2021/12/31 09:11:17;;;;;;;;;;;;;;;-144.99;100.00;52603.00;5051336;28;19963;-69
2021/12/31 09:13:46;;;;;;;;;;;;;;;-144.99;100.00;52641.72;5044102;28;19921;-69
2021/12/31 09:16:12;;;;;;;;;;;;;;;-144.99;100.00;52635.63;5045816;28;20024;-68
2021/12/31 09:18:38;;;;;;;;;;;;;;;-144.99;100.00;52609.13;5044484;28;19928;-68
2021/12/31 09:21:05;;;;;;;;;;;;;;;-144.99;100.00;52603.00;5040551;28;19921;-68
2021/12/31 09:23:31;;;;;;;;;;;;;;;-144.99;100.00;52611.16;5035537;28;20378;-68
2021/12/31 09:25:58;;;;;;;;;;;;;;;-144.99;100.00;52619.31;5035956;28;20336;-68
2021/12/31 09:28:26;;;;;;;;;;;;;;;-144.99;100.00;52627.47;5039258;28;19921;-68
2021/12/31 09:30:52;;;;;;;;;;;;;;;-144.99;100.00;52623.38;5032009;28;19929;-67
2021/12/31 09:33:19;;;;;;;;;;;;;;;-144.99;100.00;52631.53;5033397;28;19927;-67
2021/12/31 09:35:45;;;;;;;;;;;;;;;-144.99;100.00;52619.31;5038465;28;19943;-68
2021/12/31 09:38:11;;;;;;;;;;;;;;;-144.99;100.00;52611.16;5031775;28;19924;-69
2021/12/31 09:40:38;;;;;;;;;;;;;;;-144.99;100.00;52594.84;5032926;28;19944;-68
2021/12/31 09:43:09;;;;;;;;;;;;;;;-144.99;100.00;52647.84;5032840;28;19936;-67
2021/12/31 09:45:38;;;;;;;;;;;;;;;-144.99;100.00;52639.69;5033180;28;19968;-67
2021/12/31 09:48:10;;;;;;;;;;;;;;;-144.99;100.00;52603.00;5033381;28;19936;-67
2021/12/31 09:50:37;;;;;;;;;;;;;;;-144.99;100.00;52611.16;5032789;28;19924;-69
2021/12/31 09:53:05;;;;;;;;;;;;;;;-144.99;100.00;52596.88;5031200;28;20055;-67
2021/12/31 09:55:34;;;;;;;;;;;;;;;-144.99;100.00;52631.53;5026345;28;19931;-67
2021/12/31 09:58:01;;;;;;;;;;;;;;;-144.99;100.00;52580.59;5031287;28;19931;-67
2021/12/31 10:00:27;;;;;;;;;;;;;;;-144.99;100.00;52619.31;5034574;28;19929;-68
2021/12/31 10:05:49;;;;;;;;;;;;;;;-144.99;100.00;52619.31;5107353;27;20535;-68
2021/12/31 10:08:19;;;;;;;;;;;;;;;-144.99;100.00;52590.78;5102780;28;20042;-68
2021/12/31 10:11:01;;;;;;;;;;;;;;;-144.99;100.00;52645.81;5105772;28;19928;-67
2021/12/31 10:13:27;;;;;;;;;;;;;;;-144.99;100.00;52611.16;5069659;28;19928;-67
2021/12/31 10:15:54;;;;;;;;;;;;;;;-144.99;100.00;52615.25;5086659;28;19931;-68
2021/12/31 10:18:20;;;;;;;;;;;;;;;-144.99;100.00;52603.00;5087893;28;19930;-67
2021/12/31 10:20:49;;;;;;;;;;;;;;;-144.99;100.00;52609.13;5083966;28;20407;-68
2021/12/31 10:23:16;;;;;;;;;;;;;;;-144.99;100.00;52607.09;5083833;28;19933;-67
2021/12/31 10:25:42;;;;;;;;;;;;;;;-144.99;100.00;52639.69;5082236;28;19925;-69
2021/12/31 10:28:10;;;;;;;;;;;;;;;-144.99;100.00;52607.09;5084764;28;19932;-68
2021/12/31 10:30:36;;;;;;;;;;;;;;;-144.99;100.00;52590.78;5080052;28;20394;-67
2021/12/31 10:33:03;;;;;;;;;;;;;;;-144.99;100.00;52613.19;5080443;28;19924;-67
2021/12/31 10:35:42;;;;;;;;;;;;;;;-144.99;100.00;52627.47;5083826;28;19928;-68
2021/12/31 10:38:12;;;;;;;;;;;;;;;-144.99;100.00;52590.78;5086566;28;19935;-68
2021/12/31 10:40:40;;;;;;;;;;;;;;;-144.99;100.00;52550.00;5082688;28;20484;-69
2021/12/31 10:43:12;;;;;;;;;;;;;;;-144.99;100.00;52603.00;5082270;28;19924;-67
2021/12/31 10:45:39;;;;;;;;;;;;;;;-144.99;100.00;52578.53;5076191;28;20015;-67
2021/12/31 10:48:08;;;;;;;;;;;;;;;-144.99;100.00;52631.53;5079844;28;19931;-67
2021/12/31 10:50:37;;;;;;;;;;;;;;;-144.99;100.00;52598.94;5078464;28;19932;-67
2021/12/31 10:53:09;;;;;;;;;;;;;;;-144.99;100.00;52611.16;5078234;28;20016;-67
2021/12/31 10:55:40;;;;;;;;;;;;;;;-144.99;100.00;52635.63;5081934;28;19929;-69
2021/12/31 10:58:07;;;;;;;;;;;;;;;-144.99;100.00;52598.94;5093776;28;20051;-68
2021/12/31 11:00:34;;;;;;;;;;;;;;;-144.99;100.00;52635.63;5094346;28;19932;-68
2021/12/31 11:03:01;;;;;;;;;;;;;;;-144.99;100.00;52619.31;5089410;28;20027;-67
2021/12/31 11:05:27;;;;;;;;;;;;;;;-144.99;100.00;52605.03;5116275;28;19924;-68
2021/12/31 11:07:54;;;;;;;;;;;;;;;-144.99;100.00;52607.09;5115720;28;19924;-68
2021/12/31 11:10:29;;;;;;;;;;;;;;;-144.99;100.00;52621.34;5112866;28;19924;-68
2021/12/31 11:12:57;;;;;;;;;;;;;;;-144.99;100.00;52623.38;5108057;28;19923;-67
2021/12/31 11:15:24;;;;;;;;;;;;;;;-144.99;100.00;52586.69;5106059;28;19924;-69
2021/12/31 11:17:52;;;;;;;;;;;;;;;-144.99;100.00;52613.19;5087992;28;19928;-68
2021/12/31 11:20:23;;;;;;;;;;;;;;;-144.99;100.00;52623.38;5096063;28;20003;-68
2021/12/31 11:22:51;;;;;;;65.38;51.25;;;;;;;-144.99;100.00;52598.94;5088879;28;24482;-68
2021/12/31 11:25:22;;;;;;;;;;;;;;;-144.99;100.00;52635.63;5098219;28;20255;-68
2021/12/31 11:27:51;;;;;;;;;;;;;;;-144.99;100.00;52596.88;5092341;28;20010;-68
2021/12/31 11:30:39;;;;;;;;;;;;;;;-144.99;100.00;52607.09;5092048;28;19924;-69
2021/12/31 11:33:08;;;;;;;;;;;;;;;-144.99;100.00;52631.53;5081614;28;19920;-68
2021/12/31 11:35:39;;;;;;;;;;;;;;;-144.99;100.00;52627.47;5089254;28;20296;-69
2021/12/31 11:38:09;;;;;;;;;;;;;;;-144.99;100.00;52631.53;5094135;28;19970;-69
2021/12/31 11:40:36;;;;;;;;;;;;;;;-144.99;100.00;52623.38;5094372;28;19977;-69
2021/12/31 11:43:17;;;;;;;;;;;;;;;-144.99;100.00;52643.78;5092551;28;19920;-68
2021/12/31 11:45:43;;;;;;;;;;;;;;;-144.99;100.00;52643.78;5084892;28;19923;-68
2021/12/31 11:48:28;;;;;;;;;;;;;;;-144.99;100.00;52615.25;5092202;28;19944;-68
2021/12/31 11:51:05;;;;;;;68.07;52.25;;;;;;;-144.99;100.00;52627.47;5087768;28;24602;-69
2021/12/31 11:53:32;;;;;;;;;;;;;;;-144.99;100.00;52615.25;5088012;28;20206;-69
2021/12/31 11:55:58;;;;;;;;;;;;;;;-144.99;100.00;52651.94;5092321;28;19951;-68
2021/12/31 11:58:37;;;;;;;;;;;;;;;-144.99;100.00;52635.63;5092675;28;19920;-69
2021/12/31 12:01:18;;;;;;;;;;;;;;;-144.99;100.00;52629.50;5091363;28;20061;-68
2021/12/31 12:03:45;;;;;;;;;;;;;;;-144.99;100.00;52635.63;5085257;28;20254;-68
2021/12/31 12:06:33;;;;;;;;;;;;;;;-144.99;100.00;52611.16;5087342;28;19920;-68
2021/12/31 12:08:59;;;;;;;;;;;;;;;-144.99;100.00;52656.00;5087483;28;19920;-68
2021/12/31 12:11:44;;;;;;;;;;;;;;;-144.99;100.00;52647.84;5087021;28;20311;-68
2021/12/31 12:14:28;;;;;;;;;;;;;;;-144.99;100.00;52631.53;5092502;28;19920;-68
2021/12/31 12:16:58;;;;;;;;;;;;;;;-144.99;100.00;52621.34;5089791;28;20242;-68
2021/12/31 12:19:40;;;;;;;;;;;;;;;-144.99;100.00;52619.31;5092103;28;20458;-69
2021/12/31 12:22:07;;;;;;;;;;;;;;;-144.99;100.00;52607.09;5089558;28;19920;-69